Time;durP1;ratioP1;P1;durP2;ratioP2;P2;SDS_P1;SDS_P2;PMS_P1;PMS_P2;Temp;Humidity;BMP_temperature;BMP_pressure;BME280_temperature;BME280_humidity;BME280_pressure;Samples;Min_cycle;Max_cycle;Signal;HPM_P1;HPM_P2
2021/06/22 00:00:21;;;;;;;0.50;0.50;;;;;;;26.32;47.91;97500.04;128850;1097;115879;-84
2021/06/22 00:07:03;;;;;;;0.40;0.40;;;;;;;26.23;48.39;97499.90;128664;1097;115424;-84
2021/06/22 00:10:30;;;;;;;0.40;0.40;;;;;;;26.17;48.42;97505.95;128505;1097;115154;-83
2021/06/22 00:13:58;;;;;;;0.45;0.45;;;;;;;26.14;48.44;97504.06;128846;1097;115235;-83
2021/06/22 00:24:20;;;;;;;0.40;0.40;;;;;;;26.00;48.94;97492.61;129726;1097;22558;-84
2021/06/22 00:27:49;;;;;;;0.43;0.43;;;;;;;25.94;49.16;97478.59;128900;1097;115073;-83
2021/06/22 00:31:23;;;;;;;0.40;0.40;;;;;;;25.87;49.24;97479.53;128912;1097;115482;-84
2021/06/22 00:34:49;;;;;;;0.50;0.50;;;;;;;25.84;49.23;97477.64;128625;1100;115140;-84
2021/06/22 00:38:16;;;;;;;0.50;0.50;;;;;;;25.78;49.50;97490.41;128899;1096;115636;-85
2021/06/22 00:41:45;;;;;;;0.40;0.40;;;;;;;25.73;49.58;97492.87;129724;1097;22558;-85
2021/06/22 00:48:37;;;;;;;;;;;;;;;;;;;;;
2021/06/22 00:52:11;;;;;;;0.40;0.40;;;;;;;25.56;50.13;97498.39;128690;1096;115442;-84
2021/06/22 00:55:42;;;;;;;;;;;;;;;;;;;;;
2021/06/22 01:02:47;;;;;;;0.40;0.40;;;;;;;25.41;50.45;97486.92;129783;1096;22553;-85
2021/06/22 01:06:21;;;;;;;0.50;0.50;;;;;;;25.36;50.82;97483.91;128903;1095;115395;-84
2021/06/22 01:16:25;;;;;;;0.40;0.40;;;;;;;25.14;51.14;97489.13;128427;1096;115978;-85
2021/06/22 01:19:52;;;;;;;0.30;0.30;;;;;;;25.07;51.34;97509.30;128570;1096;115655;-84
2021/06/22 01:23:18;;;;;;;0.40;0.40;;;;;;;24.99;51.51;97513.42;128868;1095;115181;-84
2021/06/22 01:26:46;;;;;;;0.40;0.40;;;;;;;24.92;51.56;97499.83;129771;1096;22578;-85
2021/06/22 01:44:15;;;;;;;0.25;0.25;;;;;;;24.48;52.71;97516.44;128812;1096;115243;-85
2021/06/22 01:54:35;;;;;;;0.40;0.40;;;;;;;24.23;53.52;97514.11;128801;1097;115386;-84
2021/06/22 02:01:37;;;;;;;0.30;0.30;;;;;;;24.12;54.28;97516.27;128544;1096;115381;-82
2021/06/22 02:05:03;;;;;;;0.40;0.40;;;;;;;24.07;54.51;97518.73;128781;1096;115217;-82
2021/06/22 02:12:08;;;;;;;0.35;0.35;;;;;;;24.03;55.03;97507.02;128550;1096;115705;-83
2021/06/22 02:15:34;;;;;;;0.50;0.50;;;;;;;23.98;55.26;97508.29;128573;1095;115557;-83
2021/06/22 02:19:01;;;;;;;0.40;0.40;;;;;;;23.96;55.83;97507.92;128831;1095;115559;-82
2021/06/22 02:29:30;;;;;;;0.40;0.40;;;;;;;23.92;56.54;97505.23;128846;1097;115629;-83
2021/06/22 02:32:57;;;;;;;0.40;0.40;;;;;;;23.89;56.79;97508.03;128979;1097;115137;-82
2021/06/22 02:36:24;;;;;;;0.30;0.30;;;;;;;23.87;56.72;97513.19;128657;1096;121209;-83
2021/06/22 02:39:51;;;;;;;0.35;0.35;;;;;;;23.85;56.58;97515.56;128785;1097;115519;-82
2021/06/22 02:57:37;;;;;;;0.30;0.30;;;;;;;23.59;58.74;97574.86;128816;1096;115551;-83
2021/06/22 03:01:14;;;;;;;0.40;0.40;;;;;;;23.53;58.79;97591.80;128798;1096;115631;-83
2021/06/22 03:08:17;;;;;;;0.30;0.30;;;;;;;23.50;58.29;97583.60;128303;1096;115569;-83
2021/06/22 03:11:59;;;;;;;0.38;0.38;;;;;;;23.49;58.40;97587.55;129396;1096;22638;-83
2021/06/22 03:15:25;;;;;;;0.40;0.40;;;;;;;23.48;58.62;97586.00;127672;1100;115157;-82
2021/06/22 03:26:12;;;;;;;0.40;0.40;;;;;;;23.47;58.36;97582.48;127667;1099;115919;-83
2021/06/22 03:43:59;;;;;;;0.40;0.40;;;;;;;23.39;59.87;97583.00;127629;1101;115477;-83
2021/06/22 03:50:54;;;;;;;0.58;0.58;;;;;;;23.55;59.60;97591.41;129053;1095;115506;-82
2021/06/22 03:54:22;;;;;;;0.35;0.35;;;;;;;23.63;59.42;97595.59;128655;1096;120053;-81
2021/06/22 03:57:48;;;;;;;0.40;0.40;;;;;;;23.69;58.98;97595.93;128803;1097;115441;-84
2021/06/22 04:01:08;;;;;;;0.40;0.40;;;;;;;23.73;58.74;97593.91;128820;1096;115269;-84
2021/06/22 04:04:36;;;;;;;0.50;0.50;;;;;;;23.76;59.00;97601.33;128824;1097;115466;-84
2021/06/22 04:08:03;;;;;;;0.30;0.30;;;;;;;23.77;58.65;97611.13;128769;1097;115110;-83
2021/06/22 04:11:29;;;;;;;0.40;0.40;;;;;;;23.79;58.70;97614.25;129108;1096;115594;-84
2021/06/22 04:15:01;;;;;;;0.50;0.50;;;;;;;23.81;58.49;97606.34;128549;1096;115916;-84
2021/06/22 04:18:30;;;;;;;0.50;0.50;;;;;;;23.83;58.61;97619.69;128575;1097;115490;-83
2021/06/22 04:21:56;;;;;;;0.50;0.50;;;;;;;23.86;58.32;97611.39;128778;1097;115717;-84
2021/06/22 04:28:57;;;;;;;0.30;0.30;;;;;;;23.93;58.72;97613.23;128627;1096;115198;-84
2021/06/22 04:35:49;;;;;;;0.40;0.40;;;;;;;24.09;59.64;97601.59;129423;1097;22979;-82
2021/06/22 04:39:25;;;;;;;0.50;0.50;;;;;;;24.19;59.01;97603.40;128713;1095;115091;-83
2021/06/22 04:42:59;;;;;;;0.50;0.50;;;;;;;24.32;58.95;97609.84;128675;1096;115577;-84
2021/06/22 04:46:26;;;;;;;0.40;0.40;;;;;;;24.43;58.69;97601.44;128521;1097;115672;-83
2021/06/22 04:53:27;;;;;;;0.50;0.50;;;;;;;24.59;58.71;97603.52;129465;1097;22516;-83
2021/06/22 04:57:07;;;;;;;0.50;0.50;;;;;;;24.64;58.58;97614.03;129221;1095;115486;-84
2021/06/22 05:00:49;;;;;;;0.50;0.50;;;;;;;24.69;58.22;97605.30;128711;1096;115410;-84
2021/06/22 05:04:24;;;;;;;0.40;0.40;;;;;;;24.76;57.84;97610.68;128672;1097;115081;-83
2021/06/22 05:11:45;;;;;;;;;;;;;;;;;;;;;
2021/06/22 05:15:03;;;;;;;0.50;0.50;;;;;;;24.89;57.28;97606.09;128566;1097;115212;-83
2021/06/22 05:18:18;;;;;;;0.60;0.60;;;;;;;24.98;57.38;97616.53;128827;1097;115600;-83
2021/06/22 05:21:45;;;;;;;0.70;0.70;;;;;;;25.07;57.27;97622.24;128536;1095;115847;-84
2021/06/22 05:25:12;;;;;;;0.40;0.40;;;;;;;25.16;57.36;97605.20;128851;1096;116501;-84
2021/06/22 05:28:38;;;;;;;0.50;0.50;;;;;;;25.27;57.17;97610.47;128831;1097;115284;-84
2021/06/22 05:32:13;;;;;;;0.60;0.60;;;;;;;25.37;57.45;97606.72;128826;1096;115655;-86
2021/06/22 05:39:02;;;;;;;0.60;0.60;;;;;;;25.53;56.65;97608.73;128834;1096;115056;-82
2021/06/22 05:42:29;;;;;;;0.50;0.50;;;;;;;25.56;56.78;97610.64;128891;1095;115260;-83
2021/06/22 05:49:24;;;;;;;0.43;0.43;;;;;;;25.69;56.54;97615.05;128883;1097;115950;-84
2021/06/22 05:52:53;;;;;;;0.60;0.60;;;;;;;25.80;56.51;97625.88;128795;1097;115571;-83
2021/06/22 05:56:17;;;;;;;0.58;0.58;;;;;;;25.91;56.33;97629.16;129434;1100;114767;-83
2021/06/22 05:59:44;;;;;;;0.50;0.50;;;;;;;25.98;56.01;97630.19;129652;1100;22535;-83
2021/06/22 06:03:11;;;;;;;0.50;0.50;;;;;;;26.02;55.72;97636.42;128799;1095;115277;-83
2021/06/22 06:06:38;;;;;;;0.60;0.60;;;;;;;26.05;55.94;97635.54;128814;1097;116529;-84
2021/06/22 06:10:05;;;;;;;0.60;0.60;;;;;;;26.08;55.55;97640.97;128798;1097;115583;-82
2021/06/22 06:20:34;;;;;;;0.60;0.60;;;;;;;26.24;54.67;97653.22;129172;1097;114879;-83
2021/06/22 06:24:01;;;;;;;0.53;0.53;;;;;;;26.38;55.02;97650.13;128600;1097;115161;-83
2021/06/22 06:30:57;;;;;;;0.60;0.60;;;;;;;26.67;53.88;97652.95;128782;1097;115209;-83
2021/06/22 06:34:24;;;;;;;0.50;0.50;;;;;;;26.79;53.52;97652.23;128838;1097;115906;-84
2021/06/22 06:37:56;;;;;;;0.65;0.65;;;;;;;26.95;53.06;97650.64;128634;1098;115223;-84
2021/06/22 06:44:51;;;;;;;0.48;0.48;;;;;;;27.22;52.99;97653.86;129406;1096;23314;-83
2021/06/22 06:48:19;;;;;;;0.50;0.50;;;;;;;27.33;52.33;97656.33;128805;1097;115145;-83
2021/06/22 06:51:53;;;;;;;0.40;0.40;;;;;;;27.46;52.37;97662.64;128788;1097;115310;-82
2021/06/22 06:59:14;;;;;;;0.63;0.63;;;;;;;27.74;51.78;97668.58;128220;1100;114854;-85
2021/06/22 07:02:47;;;;;;;0.58;0.58;;;;;;;27.88;51.20;97673.69;129641;1097;22560;-86
2021/06/22 07:06:24;;;;;;;;;;;;;;;;;;;;;
2021/06/22 07:20:31;;;;;;;;;;;;;;;;;;;;;
2021/06/22 07:23:48;;;;;;;0.65;0.65;;;;;;;28.52;48.81;97688.27;129382;1100;22573;-84
2021/06/22 07:27:17;;;;;;;0.50;0.50;;;;;;;28.58;48.52;97692.03;128794;1100;115136;-84
2021/06/22 07:34:13;;;;;;;0.65;0.65;;;;;;;28.63;47.84;97688.69;128701;1097;115444;-85
2021/06/22 07:37:40;;;;;;;0.73;0.73;;;;;;;28.69;47.34;97688.11;128782;1097;115485;-84
2021/06/22 07:41:16;;;;;;;;;;;;;;;;;;;;;
2021/06/22 07:44:42;;;;;;;0.65;0.65;;;;;;;28.76;47.46;97687.88;129079;1095;115234;-81
2021/06/22 07:48:09;;;;;;;0.50;0.50;;;;;;;28.82;47.25;97684.09;128691;1097;115647;-81
2021/06/22 07:51:35;;;;;;;0.73;0.73;;;;;;;28.92;47.18;97690.48;128801;1097;115798;-83
2021/06/22 07:55:34;;;;;;;0.70;0.70;;;;;;;28.94;46.85;97676.96;128793;1097;115420;-83
2021/06/22 08:05:33;;;;;;;0.60;0.60;;;;;;;29.18;45.26;97688.41;129112;1097;114803;-83
2021/06/22 08:16:02;;;;;;;0.48;0.48;;;;;;;29.42;45.37;97690.73;128660;1097;115505;-84
2021/06/22 08:19:31;;;;;;;0.78;0.78;;;;;;;29.50;45.49;97695.56;128594;1096;115178;-84
2021/06/22 08:23:07;;;;;;;0.75;0.75;;;;;;;29.61;45.62;97703.52;128801;1097;115603;-83
2021/06/22 08:26:36;;;;;;;0.55;0.55;;;;;;;29.68;45.15;97694.17;128986;1096;114848;-83
2021/06/22 08:30:04;;;;;;;0.70;0.70;;;;;;;29.79;45.08;97695.31;128821;1097;115441;-83
2021/06/22 08:33:31;;;;;;;0.65;0.65;;;;;;;29.91;44.52;97698.42;128807;1097;115881;-83
2021/06/22 08:37:08;;;;;;;;;;;;;;;;;;;;;
2021/06/22 08:44:21;;;;;;;0.80;0.80;;;;;;;30.36;43.95;97708.20;128661;1097;115925;-81
2021/06/22 08:47:29;;;;;;;0.75;0.75;;;;;;;30.37;43.50;97707.73;128912;1098;114873;-83
2021/06/22 09:01:32;;;;;;;0.50;0.50;;;;;;;30.59;42.16;97723.55;128820;1097;115997;-82
2021/06/22 09:04:58;;;;;;;;;;;;;;;;;;;;;
2021/06/22 09:08:40;;;;;;;0.60;0.60;;;;;;;30.77;42.46;97724.39;129665;1100;22566;-84
2021/06/22 09:12:06;;;;;;;0.70;0.70;;;;;;;30.77;42.01;97731.93;127742;1100;115045;-82
2021/06/22 09:26:34;;;;;;;0.70;0.70;;;;;;;31.00;41.32;97727.80;128582;1100;115403;-84
2021/06/22 09:33:16;;;;;;;0.70;0.70;;;;;;;31.22;40.57;97736.00;128795;1095;115992;-84
2021/06/22 09:43:37;;;;;;;0.80;0.80;;;;;;;31.53;39.73;97746.98;128835;1097;115907;-83
2021/06/22 09:54:26;;;;;;;0.83;0.83;;;;;;;31.90;39.45;97744.91;128526;1096;115208;-82
2021/06/22 09:58:04;;;;;;;0.80;0.80;;;;;;;32.03;38.22;97744.74;128799;1097;115201;-83
2021/06/22 10:05:02;;;;;;;0.80;0.80;;;;;;;32.21;37.40;97747.44;128790;1096;115064;-83
2021/06/22 10:08:28;;;;;;;0.70;0.70;;;;;;;32.38;37.21;97750.61;129171;1097;115402;-83
2021/06/22 10:15:37;;;;;;;0.90;0.90;;;;;;;32.86;37.93;97742.33;128607;1097;115834;-83
2021/06/22 10:19:04;;;;;;;0.80;0.80;;;;;;;33.11;36.90;97746.67;128759;1097;115614;-81
2021/06/22 10:22:33;;;;;;;0.73;0.73;;;;;;;33.30;36.78;97749.31;128792;1096;115650;-81
2021/06/22 10:26:05;;;;;;;0.88;0.88;;;;;;;33.42;36.52;97748.28;128793;1096;115530;-83
2021/06/22 10:29:34;;;;;;;0.90;0.90;;;;;;;33.54;36.05;97755.64;129152;1097;115089;-82
2021/06/22 10:32:59;;;;;;;0.78;0.78;;;;;;;33.55;35.40;97751.59;129662;1095;22521;-84
2021/06/22 10:36:27;;;;;;;0.85;0.85;;;;;;;33.49;35.35;97753.52;128802;1097;115588;-84
2021/06/22 10:39:56;;;;;;;0.93;0.93;;;;;;;33.54;35.46;97754.87;128802;1097;115578;-84
2021/06/22 10:46:57;;;;;;;1.00;1.00;;;;;;;33.88;35.62;97751.42;128818;1097;115486;-82
2021/06/22 10:50:25;;;;;;;0.80;0.80;;;;;;;34.15;34.81;97749.58;129107;1097;114847;-85
2021/06/22 10:53:58;;;;;;;0.90;0.90;;;;;;;34.36;34.80;97753.22;129633;1095;22527;-85
2021/06/22 10:57:27;;;;;;;0.78;0.78;;;;;;;34.48;33.68;97760.52;128715;1097;115265;-83
2021/06/22 11:00:55;;;;;;;0.80;0.80;;;;;;;34.47;34.18;97758.19;128808;1097;115142;-84
2021/06/22 11:04:32;;;;;;;0.70;0.70;;;;;;;34.55;33.78;97762.17;128864;1095;115241;-82
2021/06/22 11:08:22;;;;;;;0.80;0.80;;;;;;;34.62;33.43;97762.51;128844;1096;115129;-83
2021/06/22 11:11:56;;;;;;;1.05;1.05;;;;;;;34.75;33.59;97756.61;129132;1097;22579;-85
2021/06/22 11:15:42;;;;;;;0.75;0.75;;;;;;;34.95;33.12;97761.44;128171;1097;115952;-82
2021/06/22 11:22:32;;;;;;;0.80;0.80;;;;;;;35.18;32.92;97759.72;128681;1097;115408;-84
2021/06/22 11:29:37;;;;;;;0.98;0.98;;;;;;;35.68;31.97;97770.70;128681;1097;115212;-84
2021/06/22 11:33:09;;;;;;;0.90;0.90;;;;;;;35.69;32.13;97761.05;128669;1097;115084;-83
2021/06/22 11:40:20;;;;;;;0.80;0.80;;;;;;;35.77;31.32;97759.34;128232;1097;115543;-85
2021/06/22 12:01:35;;;;;;;1.00;1.00;;;;;;;36.36;30.87;97760.88;128679;1096;115509;-83
2021/06/22 12:05:03;;;;;;;0.75;0.75;;;;;;;36.68;30.37;97758.80;128891;1096;115082;-83
2021/06/22 12:15:46;;;;;;;0.88;0.88;;;;;;;37.17;28.87;97753.17;127733;1100;115427;-84
2021/06/22 12:19:13;;;;;;;1.00;1.00;;;;;;;37.31;28.43;97757.83;128793;1096;115445;-84
2021/06/22 12:22:39;;;;;;;0.80;0.80;;;;;;;37.30;28.21;97745.06;128911;1096;115346;-84
2021/06/22 12:26:06;;;;;;;0.90;0.90;;;;;;;37.44;27.80;97748.95;128865;1096;115439;-83
2021/06/22 12:29:43;;;;;;;;;;;;;;;;;;;;;
2021/06/22 12:33:09;;;;;;;0.70;0.70;;;;;;;37.44;28.37;97751.75;129647;1095;22522;-83
2021/06/22 12:40:15;;;;;;;0.88;0.88;;;;;;;37.81;28.42;97749.53;128733;1096;115970;-84
2021/06/22 12:43:48;;;;;;;0.90;0.90;;;;;;;38.07;27.98;97746.47;128781;1097;115446;-83
2021/06/22 12:47:26;;;;;;;0.73;0.73;;;;;;;38.24;27.77;97746.48;128831;1096;115557;-84
2021/06/22 12:50:51;;;;;;;0.88;0.88;;;;;;;38.41;28.01;97746.48;129476;1097;22671;-83
2021/06/22 13:05:07;;;;;;;1.00;1.00;;;;;;;39.06;26.98;97741.70;128163;1097;115204;-84
2021/06/22 13:08:32;;;;;;;1.00;1.00;;;;;;;39.22;27.26;97740.84;129099;1095;114872;-82
2021/06/22 13:12:23;;;;;;;1.03;1.03;;;;;;;39.44;27.46;97742.81;128548;1097;115592;-83
2021/06/22 13:15:26;;;;;;;0.85;0.85;;;;;;;39.65;26.77;97729.84;128589;1096;115769;-83
2021/06/22 13:22:25;;;;;;;0.80;0.80;;;;;;;39.93;26.38;97743.00;128588;1096;115297;-83
2021/06/22 13:25:53;;;;;;;0.95;0.95;;;;;;;40.02;26.54;97736.28;128830;1097;115718;-84
2021/06/22 13:29:20;;;;;;;0.95;0.95;;;;;;;40.14;25.76;97743.38;129648;1097;22541;-83
2021/06/22 13:33:06;;;;;;;;;;;;;;;;;;;;;
2021/06/22 13:36:34;;;;;;;1.00;1.00;;;;;;;40.08;25.62;97726.46;127704;1102;115413;-84
2021/06/22 13:40:14;;;;;;;1.00;1.00;;;;;;;40.34;25.72;97728.82;127665;1100;115823;-82
2021/06/22 13:54:10;;;;;;;;;;;;;;;41.36;23.81;97734.83;128615;1096;115383;-83
2021/06/22 13:57:39;;;;;;;1.00;1.00;;;;;;;41.62;23.27;97739.89;128918;1096;101376;-83
2021/06/22 14:11:36;;;;;;;1.10;1.10;;;;;;;42.41;22.60;97738.63;129456;1096;22554;-86
2021/06/22 14:15:03;;;;;;;0.95;0.95;;;;;;;42.46;23.34;97729.26;128770;1095;115377;-84
2021/06/22 14:25:43;;;;;;;0.98;0.98;;;;;;;43.16;22.89;97740.27;128942;1096;115726;-85
2021/06/22 14:29:09;;;;;;;1.20;1.20;;;;;;;43.31;22.79;97737.62;129045;1096;115432;-85
2021/06/22 14:32:36;;;;;;;1.00;1.00;;;;;;;43.21;22.37;97741.45;129879;1096;22521;-86
2021/06/22 14:36:04;;;;;;;1.00;1.00;;;;;;;43.10;22.48;97733.95;129743;1095;22512;-84
2021/06/22 14:39:32;;;;;;;1.00;1.00;;;;;;;43.11;22.47;97744.72;129044;1096;115574;-83
2021/06/22 14:42:58;;;;;;;0.90;0.90;;;;;;;43.31;22.46;97739.66;129002;1096;115431;-86
2021/06/22 14:52:39;;;;;;;1.03;1.03;;;;;;;44.22;21.67;97750.46;128857;1095;115196;-85
2021/06/22 14:59:42;;;;;;;1.30;1.30;;;;;;;44.23;20.66;97740.63;129397;1095;22586;-83
2021/06/22 15:03:09;;;;;;;1.13;1.13;;;;;;;44.25;20.98;97752.16;128866;1096;115140;-84
2021/06/22 15:06:37;;;;;;;1.20;1.20;;;;;;;44.30;20.45;97754.14;128581;1097;115958;-85
2021/06/22 15:17:05;;;;;;;1.18;1.18;;;;;;;44.74;20.45;97769.23;128647;1097;115639;-85
2021/06/22 15:20:32;;;;;;;1.20;1.20;;;;;;;44.68;20.33;97765.77;129160;1097;115714;-85
2021/06/22 15:24:04;;;;;;;1.20;1.20;;;;;;;44.96;20.28;97770.69;128633;1097;115919;-83
2021/06/22 15:27:31;;;;;;;1.10;1.10;;;;;;;45.31;20.08;97757.02;128482;1096;116048;-83
2021/06/22 15:31:00;;;;;;;1.20;1.20;;;;;;;45.79;19.67;97760.22;128806;1097;115458;-84
2021/06/22 15:34:37;;;;;;;1.23;1.23;;;;;;;46.10;18.56;97758.16;128877;1096;115354;-83
2021/06/22 15:38:04;;;;;;;1.00;1.00;;;;;;;46.67;18.65;97763.48;128882;1096;116811;-82
2021/06/22 15:41:15;;;;;;;1.10;1.10;;;;;;;47.48;16.77;97766.48;128951;1096;115457;-82
2021/06/22 15:44:41;;;;;;;1.20;1.20;;;;;;;47.93;17.04;97764.69;129720;1095;23360;-82
2021/06/22 15:48:08;;;;;;;1.33;1.33;;;;;;;47.99;17.55;97770.16;128539;1096;115023;-82
2021/06/22 15:51:36;;;;;;;1.30;1.30;;;;;;;48.36;16.26;97768.37;128888;1096;115826;-85
2021/06/22 15:55:26;;;;;;;;;;;;;;;;;;;;;
2021/06/22 15:58:37;;;;;;;1.33;1.33;;;;;;;49.03;15.95;97770.39;128685;1096;115377;-84
2021/06/22 16:02:13;;;;;;;1.40;1.40;;;;;;;48.81;15.43;97775.02;128804;1097;115352;-83
2021/06/22 16:05:43;;;;;;;1.30;1.30;;;;;;;48.05;16.13;97773.58;129528;1096;22573;-83
2021/06/22 16:08:48;;;;;;;;;;;;;;;47.55;16.38;97762.05;128825;1096;115661;-83
2021/06/22 16:15:43;;;;;;;1.30;1.30;;;;;;;46.97;17.48;97759.84;128842;1096;114998;-84
2021/06/22 16:19:09;;;;;;;1.30;1.30;;;;;;;46.67;17.77;97757.03;128769;1096;115922;-84
2021/06/22 16:29:32;;;;;;;1.10;1.10;;;;;;;44.68;19.58;97762.94;129672;1096;22552;-82
2021/06/22 16:32:59;;;;;;;1.10;1.10;;;;;;;43.88;20.42;97750.53;128864;1096;115429;-83
2021/06/22 16:36:27;;;;;;;0.93;0.93;;;;;;;43.06;21.33;97753.35;128804;1096;114874;-82
2021/06/22 16:39:55;;;;;;;1.00;1.00;;;;;;;42.28;22.19;97759.16;128804;1096;115004;-84
2021/06/22 16:43:23;;;;;;;1.00;1.00;;;;;;;41.68;22.73;97757.51;128827;1096;115544;-82
2021/06/22 16:46:51;;;;;;;0.90;0.90;;;;;;;41.04;24.10;97753.77;128827;1096;115748;-81
2021/06/22 16:53:38;;;;;;;0.90;0.90;;;;;;;39.70;25.59;97762.16;129705;1096;22558;-83
2021/06/22 17:00:41;;;;;;;0.85;0.85;;;;;;;38.65;27.30;97771.23;128656;1096;115244;-82
2021/06/22 17:04:08;;;;;;;1.03;1.03;;;;;;;38.22;28.06;97771.52;128592;1096;115658;-81
2021/06/22 17:07:37;;;;;;;0.80;0.80;;;;;;;37.81;28.78;97771.25;128837;1095;115598;-83
2021/06/22 17:21:31;;;;;;;0.90;0.90;;;;;;;36.72;30.16;97778.97;128855;1096;115495;-82
2021/06/22 17:24:58;;;;;;;0.90;0.90;;;;;;;36.42;31.09;97774.92;128806;1095;115244;-83
2021/06/22 17:28:49;;;;;;;0.90;0.90;;;;;;;36.21;31.37;97772.23;128553;1096;115546;-81
2021/06/22 17:35:32;;;;;;;0.75;0.75;;;;;;;35.83;31.87;97765.75;128873;1096;114907;-81
2021/06/22 17:38:59;;;;;;;0.60;0.60;;;;;;;35.66;32.29;97776.05;128802;1096;115723;-82
2021/06/22 17:42:28;;;;;;;0.80;0.80;;;;;;;35.48;32.63;97773.52;128814;1096;115500;-82
2021/06/22 17:49:25;;;;;;;0.88;0.88;;;;;;;35.07;33.77;97774.34;128627;1096;115311;-82
2021/06/22 17:52:59;;;;;;;0.70;0.70;;;;;;;34.85;34.05;97780.38;128610;1096;115708;-82
2021/06/22 17:56:25;;;;;;;0.90;0.90;;;;;;;34.61;34.77;97771.39;128676;1095;115616;-82
2021/06/22 17:59:54;;;;;;;0.83;0.83;;;;;;;34.44;35.74;97779.52;129434;1096;22541;-81
2021/06/22 18:03:24;;;;;;;0.85;0.85;;;;;;;34.29;35.27;97787.16;128820;1095;115598;-83
2021/06/22 18:06:50;;;;;;;0.60;0.60;;;;;;;34.14;35.87;97787.16;128503;1096;115186;-81
2021/06/22 18:10:18;;;;;;;0.70;0.70;;;;;;;33.96;37.48;97790.91;128590;1096;115419;-82
2021/06/22 18:13:55;;;;;;;0.83;0.83;;;;;;;33.78;37.01;97791.86;128824;1096;115433;-82
2021/06/22 18:17:34;;;;;;;0.73;0.73;;;;;;;33.57;37.48;97790.20;128755;1095;116268;-83
2021/06/22 18:21:07;;;;;;;0.80;0.80;;;;;;;33.34;38.37;97797.34;128404;1096;116232;-83
2021/06/22 18:24:44;;;;;;;;;;;;;;;;;;;;;
2021/06/22 18:28:02;;;;;;;0.78;0.78;;;;;;;32.89;39.14;97818.68;128196;1099;115667;-83
2021/06/22 18:38:39;;;;;;;0.90;0.90;;;;;;;32.18;40.81;97831.17;128815;1100;116133;-83
2021/06/22 18:52:40;;;;;;;0.70;0.70;;;;;;;31.28;42.76;97843.41;128488;1098;115424;-83
2021/06/22 19:06:27;;;;;;;0.70;0.70;;;;;;;30.57;44.09;97865.70;127723;1101;115725;-83
2021/06/22 19:10:15;;;;;;;0.70;0.70;;;;;;;30.37;44.58;97874.41;127760;1100;116465;-83
2021/06/22 19:16:52;;;;;;;0.75;0.75;;;;;;;30.05;44.89;97884.66;128809;1100;115610;-83
2021/06/22 19:20:22;;;;;;;0.70;0.70;;;;;;;29.91;45.53;97884.40;128745;1100;116055;-82
2021/06/22 19:23:49;;;;;;;0.68;0.68;;;;;;;29.75;45.42;97883.38;129217;1100;22565;-84
2021/06/22 19:27:22;;;;;;;0.60;0.60;;;;;;;29.63;45.70;97891.73;129578;1099;22539;-84
2021/06/22 19:30:51;;;;;;;0.80;0.80;;;;;;;29.49;45.81;97899.30;128525;1100;115308;-83
2021/06/22 19:34:17;;;;;;;0.70;0.70;;;;;;;29.37;45.85;97899.33;128753;1098;115197;-83
2021/06/22 19:37:46;;;;;;;0.60;0.60;;;;;;;29.24;45.99;97897.36;128774;1099;115133;-83
2021/06/22 19:44:40;;;;;;;0.60;0.60;;;;;;;29.04;46.48;97903.16;129619;1098;22535;-83
2021/06/22 19:48:08;;;;;;;0.65;0.65;;;;;;;28.96;46.59;97901.77;129641;1100;22545;-82
2021/06/22 19:51:34;;;;;;;0.60;0.60;;;;;;;28.86;47.11;97905.67;128788;1100;115615;-83
2021/06/22 19:58:34;;;;;;;0.60;0.60;;;;;;;28.68;46.79;97911.75;128923;1099;115488;-84
2021/06/22 20:02:00;;;;;;;0.53;0.53;;;;;;;28.60;47.13;97915.95;128669;1099;115495;-84
2021/06/22 20:05:27;;;;;;;0.60;0.60;;;;;;;28.52;47.35;97917.38;129469;1098;112723;-83
2021/06/22 20:08:54;;;;;;;0.60;0.60;;;;;;;28.41;47.61;97909.38;129795;1098;22584;-83
2021/06/22 20:12:21;;;;;;;0.43;0.43;;;;;;;28.32;47.82;97918.31;128941;1100;116357;-83
2021/06/22 20:21:45;;;;;;;0.60;0.60;;;;;;;28.12;48.29;97921.25;128911;1099;115359;-82
2021/06/22 20:25:12;;;;;;;0.50;0.50;;;;;;;28.06;48.21;97913.91;128965;1100;115451;-84
2021/06/22 20:32:07;;;;;;;0.60;0.60;;;;;;;27.94;48.82;97922.94;128733;1100;115552;-84
2021/06/22 20:42:28;;;;;;;0.50;0.50;;;;;;;27.75;49.72;97925.42;128546;1098;116630;-83
2021/06/22 20:46:06;;;;;;;;;;;;;;;;;;;;;
2021/06/22 20:49:24;;;;;;;0.55;0.55;;;;;;;27.65;50.02;97941.05;128734;1100;116117;-83
2021/06/22 20:53:01;;;;;;;0.60;0.60;;;;;;;27.64;49.87;97938.72;128779;1100;115560;-83
2021/06/22 20:56:29;;;;;;;0.60;0.60;;;;;;;27.60;50.11;97941.58;129125;1100;113660;-85
2021/06/22 21:03:32;;;;;;;0.50;0.50;;;;;;;27.56;50.30;97943.66;128414;1100;115652;-84
2021/06/22 21:10:25;;;;;;;0.60;0.60;;;;;;;27.54;50.68;97959.12;128892;1100;116535;-84
2021/06/22 21:13:53;;;;;;;0.60;0.60;;;;;;;27.52;50.98;97956.02;128923;1100;115091;-85
2021/06/22 21:20:48;;;;;;;0.63;0.63;;;;;;;27.47;51.18;97960.09;129761;1098;22594;-84
2021/06/22 21:24:17;;;;;;;0.60;0.60;;;;;;;27.44;51.10;97963.72;128920;1100;114974;-84
2021/06/22 21:27:43;;;;;;;0.60;0.60;;;;;;;27.44;50.80;97968.47;128904;1100;115799;-85
2021/06/22 21:31:10;;;;;;;0.50;0.50;;;;;;;27.41;51.08;97965.34;128927;1100;115275;-83
2021/06/22 21:34:44;;;;;;;0.60;0.60;;;;;;;27.39;50.93;97970.55;128892;1098;115946;-84
2021/06/22 21:51:09;;;;;;;0.60;0.60;;;;;;;27.33;50.91;97969.49;128816;1098;115710;-84
2021/06/22 21:54:39;;;;;;;0.70;0.70;;;;;;;27.32;51.21;97976.23;128571;1100;115667;-85
2021/06/22 21:58:10;;;;;;;0.70;0.70;;;;;;;27.31;51.20;97985.75;128823;1100;115604;-86
2021/06/22 22:01:49;;;;;;;0.60;0.60;;;;;;;27.30;51.22;97986.16;128597;1100;116206;-86
2021/06/22 22:05:15;;;;;;;0.68;0.68;;;;;;;27.28;51.16;97991.36;128361;1099;115379;-86
2021/06/22 22:08:43;;;;;;;;;;;;;;;;;;;;;
2021/06/22 22:12:13;;;;;;;0.55;0.55;;;;;;;27.21;51.28;97977.70;128597;1099;115448;-85
2021/06/22 22:15:37;;;;;;;;;;;;;;;;;;;;;
2021/06/22 22:22:38;;;;;;;;;;;;;;;;;;;;;
2021/06/22 22:26:07;;;;;;;0.48;0.48;;;;;;;27.02;51.91;97976.52;128728;1097;114103;-83
2021/06/22 22:29:35;;;;;;;0.50;0.50;;;;;;;26.98;52.13;97971.06;129279;1095;114962;-83
2021/06/22 22:33:00;;;;;;;;;;;;;;;;;;;;;
2021/06/22 22:36:29;;;;;;;0.43;0.43;;;;;;;26.92;52.43;97968.04;128961;1096;115551;-83
2021/06/22 22:39:58;;;;;;;0.60;0.60;;;;;;;26.91;52.04;97971.21;128734;1096;115778;-84
2021/06/22 22:50:27;;;;;;;0.60;0.60;;;;;;;26.82;52.50;97971.80;129229;1098;114854;-85
2021/06/22 22:56:38;;;;;;;0.50;0.50;;;;;;;26.75;52.67;97963.66;129806;1098;22646;-82
2021/06/22 23:00:06;;;;;;;0.40;0.40;;;;;;;26.71;53.00;97959.43;128895;1100;115051;-83
2021/06/22 23:03:34;;;;;;;0.60;0.60;;;;;;;26.67;53.21;97963.03;128880;1099;115452;-83
2021/06/22 23:10:11;;;;;;;0.60;0.60;;;;;;;26.58;52.70;97954.56;128860;1096;115094;-83
2021/06/22 23:13:39;;;;;;;0.70;0.70;;;;;;;26.53;52.59;97963.36;128833;1097;115718;-84
2021/06/22 23:19:58;;;;;;;0.40;0.40;;;;;;;26.47;53.04;97951.23;128837;1097;115057;-84
2021/06/22 23:30:34;;;;;;;0.75;0.75;;;;;;;26.41;53.10;97942.66;128708;1097;115582;-84
2021/06/22 23:34:03;;;;;;;0.55;0.55;;;;;;;26.42;53.07;97946.97;128863;1097;115490;-83
2021/06/22 23:41:00;;;;;;;0.45;0.45;;;;;;;26.40;53.21;97935.56;128594;1096;115415;-83
2021/06/22 23:48:05;;;;;;;0.35;0.35;;;;;;;26.40;53.18;97935.56;128790;1099;115463;-84
2021/06/22 23:51:33;;;;;;;0.50;0.50;;;;;;;26.38;53.41;97929.70;128891;1100;115295;-84
2021/06/22 23:58:35;;;;;;;0.60;0.60;;;;;;;26.29;53.89;97935.02;128642;1100;115156;-84
